createdAt,value
2022-12-08T00:01:23.178Z,15.00
2022-12-08T00:03:50.560Z,17.65
2022-12-08T00:06:59.681Z,16.45
2022-12-08T00:09:39.138Z,19.20
2022-12-08T00:12:17.695Z,16.45
2022-12-08T00:14:47.291Z,16.98
2022-12-08T00:17:15.712Z,16.70
2022-12-08T00:19:42.889Z,14.88
2022-12-08T00:22:11.043Z,16.02
2022-12-08T00:24:41.796Z,14.55
2022-12-08T00:27:09.498Z,16.40
2022-12-08T00:29:36.075Z,13.57
2022-12-08T00:32:02.699Z,12.82
2022-12-08T00:34:29.264Z,13.68
2022-12-08T00:36:55.772Z,15.18
2022-12-08T00:39:22.395Z,11.65
2022-12-08T00:42:07.239Z,11.25
2022-12-08T00:44:34.738Z,11.38
2022-12-08T00:47:01.269Z,11.15
2022-12-08T00:49:27.828Z,8.82
2022-12-08T00:51:54.524Z,10.52
2022-12-08T00:54:23.091Z,11.07
2022-12-08T00:56:50.550Z,8.27
2022-12-08T00:59:17.366Z,9.38
2022-12-08T01:01:45.749Z,11.02
2022-12-08T01:04:16.213Z,9.63
2022-12-08T01:06:43.002Z,5.93
2022-12-08T01:09:11.178Z,6.57
2022-12-08T01:11:39.553Z,6.03
2022-12-08T01:14:06.103Z,6.72
2022-12-08T01:16:35.595Z,7.50
2022-12-08T01:19:03.370Z,7.80
2022-12-08T01:21:30.098Z,5.82
2022-12-08T01:23:59.241Z,5.65
2022-12-08T01:26:25.754Z,9.77
2022-12-08T01:28:52.339Z,6.93
2022-12-08T01:31:21.761Z,6.70
2022-12-08T01:33:49.503Z,5.57
2022-12-08T01:36:28.094Z,6.63
2022-12-08T01:38:58.406Z,6.22
2022-12-08T01:41:28.317Z,5.97
2022-12-08T01:44:20.919Z,5.85
2022-12-08T01:46:48.928Z,7.68
2022-12-08T01:49:22.973Z,5.82
2022-12-08T01:52:01.807Z,6.78
2022-12-08T01:54:31.962Z,5.97
2022-12-08T01:57:17.017Z,3.78
2022-12-08T01:59:49.865Z,6.10
2022-12-08T02:02:16.473Z,5.65
2022-12-08T02:04:43.042Z,4.90
2022-12-08T02:07:11.756Z,5.53
2022-12-08T02:09:40.171Z,6.82
2022-12-08T02:12:10.176Z,6.05
2022-12-08T02:14:36.855Z,7.15
2022-12-08T02:17:26.102Z,5.40
2022-12-08T02:20:37.852Z,6.22
2022-12-08T02:23:41.340Z,7.30
2022-12-08T02:26:36.924Z,6.80
2022-12-08T02:29:06.536Z,6.65
2022-12-08T02:32:12.371Z,7.93
2022-12-08T02:34:48.774Z,5.90
2022-12-08T02:37:31.734Z,6.60
2022-12-08T02:40:21.289Z,3.88
2022-12-08T02:42:54.814Z,6.45
2022-12-08T02:45:34.183Z,4.38
2022-12-08T02:48:00.868Z,6.63
2022-12-08T02:50:28.479Z,5.88
2022-12-08T02:52:55.415Z,7.30
2022-12-08T02:55:28.250Z,7.35
2022-12-08T02:58:22.889Z,6.28
2022-12-08T03:01:01.781Z,7.82
2022-12-08T03:03:41.936Z,5.68
2022-12-08T03:06:37.815Z,5.45
2022-12-08T03:09:25.332Z,5.60
2022-12-08T03:11:59.321Z,7.75
2022-12-08T03:14:26.211Z,7.22
2022-12-08T03:16:56.621Z,6.15
2022-12-08T03:19:27.471Z,7.75
2022-12-08T03:22:03.204Z,7.97
2022-12-08T03:24:34.851Z,7.65
2022-12-08T03:27:05.881Z,8.02
2022-12-08T03:32:13.754Z,6.22
2022-12-08T03:34:44.370Z,7.15
2022-12-08T03:37:10.934Z,9.45
2022-12-08T03:39:37.457Z,8.13
2022-12-08T03:42:04.034Z,7.47
2022-12-08T03:44:30.657Z,10.52
2022-12-08T03:46:57.334Z,8.35
2022-12-08T03:49:23.817Z,7.07
2022-12-08T03:51:50.460Z,7.55
2022-12-08T03:54:17.033Z,8.20
2022-12-08T03:56:44.022Z,7.07
2022-12-08T03:59:10.978Z,10.10
2022-12-08T04:01:37.549Z,7.07
2022-12-08T04:04:04.274Z,8.50
2022-12-08T04:06:30.889Z,10.30
2022-12-08T04:08:57.411Z,8.63
2022-12-08T04:11:23.928Z,7.80
2022-12-08T04:13:50.475Z,8.55
2022-12-08T04:16:23.150Z,9.15
2022-12-08T04:18:49.934Z,7.72
2022-12-08T04:21:18.295Z,7.65
2022-12-08T04:23:46.365Z,9.05
2022-12-08T04:26:13.709Z,9.35
2022-12-08T04:28:40.245Z,11.13
2022-12-08T04:31:07.271Z,8.25
2022-12-08T04:33:35.208Z,9.23
2022-12-08T04:36:04.942Z,11.65
2022-12-08T04:38:32.162Z,10.82
2022-12-08T04:40:58.962Z,12.07
2022-12-08T04:43:25.594Z,13.32
2022-12-08T04:45:52.321Z,12.38
2022-12-08T04:48:18.867Z,9.48
2022-12-08T04:50:45.799Z,10.68
2022-12-08T04:53:13.955Z,11.95
2022-12-08T04:55:43.876Z,11.15
2022-12-08T04:58:15.095Z,11.23
2022-12-08T05:00:42.291Z,11.25
2022-12-08T05:03:09.404Z,11.30
2022-12-08T05:05:36.066Z,14.70
2022-12-08T05:08:02.661Z,13.10
2022-12-08T05:10:29.223Z,17.70
2022-12-08T05:12:55.742Z,12.20
2022-12-08T05:15:22.327Z,13.98
2022-12-08T05:17:48.827Z,14.88
2022-12-08T05:20:15.334Z,12.07
2022-12-08T05:22:41.874Z,13.70
2022-12-08T05:25:08.944Z,13.95
2022-12-08T05:27:36.170Z,15.10
2022-12-08T05:30:03.400Z,11.77
2022-12-08T05:32:30.201Z,14.60
2022-12-08T05:34:56.739Z,13.10
2022-12-08T05:37:23.266Z,13.55
2022-12-08T05:39:49.739Z,15.13
2022-12-08T05:42:20.509Z,13.07
2022-12-08T05:44:49.696Z,15.93
2022-12-08T05:47:16.245Z,12.07
2022-12-08T05:49:42.747Z,13.43
2022-12-08T05:52:09.284Z,13.05
2022-12-08T05:54:35.873Z,11.07
2022-12-08T05:57:02.437Z,12.43
2022-12-08T05:59:28.937Z,15.40
2022-12-08T06:01:55.499Z,14.32
2022-12-08T06:04:22.258Z,20.65
2022-12-08T06:06:48.782Z,15.85
2022-12-08T06:09:15.358Z,17.10
2022-12-08T06:11:42.430Z,14.50
2022-12-08T06:14:12.192Z,18.70
2022-12-08T06:16:38.924Z,14.45
2022-12-08T06:19:05.467Z,14.55
2022-12-08T06:21:31.954Z,16.05
2022-12-08T06:23:58.539Z,13.57
2022-12-08T06:26:25.283Z,15.18
2022-12-08T06:28:52.096Z,14.02
2022-12-08T06:31:21.658Z,12.05
2022-12-08T06:33:48.539Z,14.07
2022-12-08T06:36:16.985Z,15.85
2022-12-08T06:38:44.179Z,11.75
2022-12-08T06:41:12.102Z,11.65
2022-12-08T06:43:39.058Z,12.25
2022-12-08T06:46:08.323Z,12.98
2022-12-08T06:48:34.950Z,11.18
2022-12-08T06:51:16.305Z,13.30
2022-12-08T06:53:44.085Z,14.68
2022-12-08T06:56:11.246Z,12.85
2022-12-08T06:58:38.732Z,15.07
2022-12-08T07:01:07.590Z,12.30
2022-12-08T07:03:34.418Z,17.05
2022-12-08T07:06:04.103Z,13.35
2022-12-08T07:08:31.801Z,13.63
2022-12-08T07:10:58.379Z,22.85
2022-12-08T07:13:24.990Z,12.95
2022-12-08T07:15:51.974Z,16.55
2022-12-08T07:18:18.538Z,14.85
2022-12-08T07:20:45.146Z,14.23
2022-12-08T07:23:11.644Z,17.10
2022-12-08T07:25:38.146Z,15.80
2022-12-08T07:28:08.666Z,14.77
2022-12-08T07:30:35.156Z,15.27
2022-12-08T07:33:03.078Z,15.68
2022-12-08T07:35:29.574Z,14.70
2022-12-08T07:37:56.052Z,17.13
2022-12-08T07:40:22.605Z,13.52
2022-12-08T07:42:49.275Z,13.40
2022-12-08T07:45:15.901Z,12.93
2022-12-08T07:47:42.377Z,21.48
2022-12-08T07:50:09.035Z,13.60
2022-12-08T07:52:35.962Z,12.25
2022-12-08T07:55:02.527Z,13.35
2022-12-08T07:57:29.106Z,10.70
2022-12-08T07:59:56.184Z,12.63
2022-12-08T08:02:25.744Z,14.90
2022-12-08T08:04:55.286Z,14.00
2022-12-08T08:07:21.987Z,12.70
2022-12-08T08:09:49.427Z,16.65
2022-12-08T08:12:31.289Z,14.55
2022-12-08T08:14:59.222Z,13.90
2022-12-08T08:17:25.898Z,12.05
2022-12-08T08:19:52.760Z,13.95
2022-12-08T08:22:19.523Z,12.35
2022-12-08T08:24:46.287Z,13.80
2022-12-08T08:27:12.882Z,11.48
2022-12-08T08:29:39.454Z,14.93
2022-12-08T08:32:06.076Z,13.20
2022-12-08T08:34:32.543Z,13.57
2022-12-08T08:36:59.203Z,12.85
2022-12-08T08:39:25.797Z,12.48
2022-12-08T08:41:52.481Z,13.32
2022-12-08T08:44:19.090Z,12.32
2022-12-08T08:46:45.888Z,12.30
2022-12-08T08:49:12.750Z,14.65
2022-12-08T08:51:39.409Z,10.23
2022-12-08T08:54:06.493Z,15.02
2022-12-08T08:56:33.085Z,10.98
2022-12-08T08:58:59.635Z,9.93
2022-12-08T09:01:28.231Z,13.40
2022-12-08T09:03:55.759Z,10.70
2022-12-08T09:06:23.182Z,12.52
2022-12-08T09:08:50.982Z,13.18
2022-12-08T09:11:18.750Z,13.70
2022-12-08T09:13:49.243Z,11.27
2022-12-08T09:16:16.826Z,13.88
2022-12-08T09:18:46.462Z,12.70
2022-12-08T09:21:16.794Z,15.43
2022-12-08T09:23:44.015Z,16.52
2022-12-08T09:26:10.819Z,15.60
2022-12-08T09:28:38.114Z,16.95
2022-12-08T09:31:05.805Z,15.23
2022-12-08T09:33:32.414Z,23.17
2022-12-08T09:36:03.855Z,17.63
2022-12-08T09:38:31.195Z,19.05
2022-12-08T09:40:58.819Z,21.33
2022-12-08T09:43:37.256Z,18.48
2022-12-08T09:46:10.518Z,17.25
2022-12-08T09:48:48.297Z,17.65
2022-12-08T09:51:16.713Z,16.70
2022-12-08T09:53:48.488Z,15.93
2022-12-08T09:56:30.324Z,18.95
2022-12-08T09:59:01.703Z,14.70
2022-12-08T10:01:34.290Z,16.92
2022-12-08T10:04:01.504Z,17.23
2022-12-08T10:06:51.599Z,15.82
2022-12-08T10:09:22.979Z,18.65
2022-12-08T10:12:17.534Z,16.50
2022-12-08T10:14:48.264Z,18.35
2022-12-08T10:17:22.109Z,14.00
2022-12-08T10:19:51.098Z,19.88
2022-12-08T10:22:25.171Z,18.35
2022-12-08T10:25:10.336Z,22.50
2022-12-08T10:27:37.390Z,19.98
2022-12-08T10:30:14.445Z,14.18
2022-12-08T10:32:45.245Z,16.05
2022-12-08T10:37:40.743Z,14.65
2022-12-08T10:40:15.573Z,14.40
2022-12-08T10:42:52.907Z,26.48
2022-12-08T10:45:37.985Z,16.42
2022-12-08T10:48:17.244Z,14.57
2022-12-08T10:50:47.000Z,16.45
2022-12-08T10:53:21.190Z,23.08
2022-12-08T10:56:08.368Z,19.10
2022-12-08T10:58:40.696Z,13.77
2022-12-08T11:01:18.576Z,15.52
2022-12-08T11:03:52.885Z,16.77
2022-12-08T11:06:24.450Z,16.02
2022-12-08T11:09:03.474Z,18.38
2022-12-08T11:11:56.888Z,18.50
2022-12-08T11:14:33.397Z,16.67
2022-12-08T11:17:02.999Z,27.45
2022-12-08T11:19:29.697Z,19.30
2022-12-08T11:21:57.335Z,19.38
2022-12-08T11:24:29.271Z,17.95
2022-12-08T11:27:03.926Z,19.02
2022-12-08T11:29:35.654Z,20.77
2022-12-08T11:32:06.504Z,18.85
2022-12-08T11:34:38.815Z,17.55
2022-12-08T11:37:08.779Z,22.15
2022-12-08T11:39:36.510Z,17.33
2022-12-08T11:42:05.153Z,20.77
2022-12-08T11:44:53.524Z,19.15
2022-12-08T11:47:34.629Z,23.35
2022-12-08T11:50:20.686Z,21.75
2022-12-08T11:52:51.251Z,20.05
2022-12-08T11:55:37.280Z,22.60
2022-12-08T11:58:18.172Z,21.77
2022-12-08T12:00:45.293Z,22.77
2022-12-08T12:03:43.775Z,22.95
2022-12-08T12:06:38.295Z,20.70
2022-12-08T12:09:16.794Z,24.45
2022-12-08T12:12:19.263Z,21.75
2022-12-08T12:15:23.134Z,23.85
2022-12-08T12:18:16.978Z,25.55
2022-12-08T12:21:02.258Z,23.88
2022-12-08T12:23:37.252Z,25.80
2022-12-08T12:26:09.494Z,26.85
2022-12-08T12:28:49.818Z,25.13
2022-12-08T12:31:21.793Z,27.05
2022-12-08T12:33:49.818Z,22.63
2022-12-08T12:36:17.082Z,25.65
2022-12-08T12:39:06.308Z,28.67
2022-12-08T12:41:41.666Z,26.30
2022-12-08T12:44:24.041Z,27.13
2022-12-08T12:46:50.513Z,29.38
2022-12-08T12:49:49.819Z,27.65
2022-12-08T12:52:16.708Z,34.08
2022-12-08T12:54:50.011Z,24.90
2022-12-08T12:57:23.132Z,24.50
2022-12-08T12:59:55.558Z,30.30
2022-12-08T13:02:34.308Z,29.63
2022-12-08T13:05:09.425Z,26.55
2022-12-08T13:07:56.268Z,27.98
2022-12-08T13:10:26.733Z,29.42
2022-12-08T13:13:12.717Z,28.50
2022-12-08T13:15:40.420Z,28.27
2022-12-08T13:18:21.910Z,33.97
2022-12-08T13:20:53.653Z,32.83
2022-12-08T13:23:38.368Z,28.50
2022-12-08T13:26:18.823Z,28.45
2022-12-08T13:29:04.034Z,25.77
2022-12-08T13:31:46.622Z,30.02
2022-12-08T13:34:22.414Z,26.65
2022-12-08T13:37:02.239Z,31.92
2022-12-08T13:39:41.521Z,29.48
2022-12-08T13:42:32.435Z,29.90
2022-12-08T13:48:23.437Z,28.48
2022-12-08T13:55:01.843Z,29.50
2022-12-08T13:57:05.439Z,31.83
2022-12-08T13:59:35.582Z,30.02
2022-12-08T14:02:05.743Z,30.88
2022-12-08T14:07:19.358Z,28.05
2022-12-08T14:09:46.339Z,36.72
2022-12-08T14:12:25.518Z,35.92
2022-12-08T14:15:03.261Z,29.88
2022-12-08T14:17:31.000Z,30.30
2022-12-08T14:20:01.077Z,30.83
2022-12-08T14:22:36.551Z,29.63
2022-12-08T14:25:04.953Z,30.02
2022-12-08T14:27:37.402Z,29.88
2022-12-08T14:30:08.760Z,28.85
2022-12-08T14:32:42.988Z,26.10
2022-12-08T14:35:09.434Z,23.23
2022-12-08T14:37:39.617Z,25.52
2022-12-08T14:40:22.775Z,33.53
2022-12-08T14:43:05.239Z,36.05
2022-12-08T14:45:35.282Z,29.35
2022-12-08T14:48:20.813Z,31.85
2022-12-08T14:51:12.094Z,28.42
2022-12-08T14:53:45.141Z,25.10
2022-12-08T14:56:51.744Z,27.63
2022-12-08T15:01:49.696Z,25.83
2022-12-08T15:04:24.625Z,25.50
2022-12-08T15:07:02.627Z,32.42
2022-12-08T15:09:38.464Z,28.02
2022-12-08T15:12:11.926Z,29.65
2022-12-08T15:14:42.656Z,27.88
2022-12-08T15:17:48.945Z,26.33
2022-12-08T15:20:42.579Z,27.85
2022-12-08T15:23:41.892Z,24.23
2022-12-08T15:26:09.075Z,27.08
2022-12-08T15:28:35.531Z,28.95
2022-12-08T15:31:02.045Z,31.77
2022-12-08T15:33:28.697Z,30.13
2022-12-08T15:35:55.359Z,28.48
2022-12-08T15:38:31.568Z,26.83
2022-12-08T15:41:00.973Z,29.90
2022-12-08T15:43:27.996Z,31.92
2022-12-08T15:45:59.627Z,32.50
2022-12-08T15:48:28.625Z,32.75
2022-12-08T15:50:56.493Z,27.95
2022-12-08T15:53:23.526Z,29.60
2022-12-08T15:56:19.026Z,28.85
2022-12-08T15:58:55.281Z,29.30
2022-12-08T16:01:23.465Z,29.33
2022-12-08T16:07:20.359Z,28.70
2022-12-08T16:09:40.917Z,31.08
2022-12-08T16:13:34.060Z,31.30
2022-12-08T16:18:26.827Z,28.85
2022-12-08T16:23:44.585Z,33.45
2022-12-08T16:26:39.482Z,27.45
2022-12-08T16:29:06.128Z,27.15
2022-12-08T16:31:32.886Z,29.63
2022-12-08T16:33:59.956Z,27.55
2022-12-08T16:36:26.432Z,26.60
2022-12-08T16:38:52.997Z,33.60
2022-12-08T16:41:38.781Z,30.05
2022-12-08T16:44:06.380Z,28.30
2022-12-08T16:46:33.457Z,29.38
2022-12-08T16:49:00.024Z,28.23
2022-12-08T16:51:27.499Z,31.33
2022-12-08T16:53:55.344Z,32.55
2022-12-08T16:56:28.774Z,29.17
2022-12-08T16:58:57.294Z,31.88
2022-12-08T17:01:24.862Z,29.48
2022-12-08T17:04:07.452Z,29.25
2022-12-08T17:06:37.914Z,33.47
2022-12-08T17:09:04.673Z,29.77
2022-12-08T17:11:37.501Z,30.80
2022-12-08T17:14:09.224Z,29.05
2022-12-08T17:16:35.976Z,32.35
2022-12-08T17:19:02.540Z,28.80
2022-12-08T17:21:29.117Z,29.08
2022-12-08T17:23:55.682Z,28.30
2022-12-08T17:26:22.193Z,29.92
2022-12-08T17:29:00.412Z,26.80
2022-12-08T17:31:30.240Z,31.27
2022-12-08T17:34:05.009Z,33.10
2022-12-08T17:36:31.527Z,31.55
2022-12-08T17:38:59.743Z,30.05
2022-12-08T17:41:26.426Z,30.70
2022-12-08T17:43:52.970Z,29.77
2022-12-08T17:46:20.168Z,32.22
2022-12-08T17:48:47.204Z,31.50
2022-12-08T17:51:14.101Z,27.70
2022-12-08T17:53:40.891Z,30.13
2022-12-08T17:56:15.627Z,33.45
2022-12-08T17:58:42.183Z,26.35
2022-12-08T18:01:10.150Z,27.50
2022-12-08T18:03:37.913Z,28.48
2022-12-08T18:06:06.882Z,30.65
2022-12-08T18:08:33.580Z,30.08
2022-12-08T18:11:00.521Z,28.67
2022-12-08T18:13:28.189Z,27.50
2022-12-08T18:15:54.819Z,29.15
2022-12-08T18:18:22.818Z,31.98
2022-12-08T18:20:50.098Z,26.98
2022-12-08T18:23:17.398Z,30.85
2022-12-08T18:25:44.628Z,32.13
2022-12-08T18:28:11.595Z,30.75
2022-12-08T18:30:40.045Z,27.70
2022-12-08T18:33:07.903Z,29.92
2022-12-08T18:35:34.950Z,28.02
2022-12-08T18:38:01.592Z,27.08
2022-12-08T18:40:28.693Z,27.50
2022-12-08T18:42:55.435Z,27.33
2022-12-08T18:45:22.851Z,28.58
2022-12-08T18:47:51.348Z,27.23
2022-12-08T18:50:19.564Z,32.72
2022-12-08T18:52:46.598Z,26.48
2022-12-08T18:55:14.328Z,25.88
2022-12-08T18:57:44.527Z,23.52
2022-12-08T19:00:14.296Z,41.70
2022-12-08T19:02:41.571Z,33.85
2022-12-08T19:05:10.925Z,30.00
2022-12-08T19:07:38.000Z,28.77
2022-12-08T19:10:06.361Z,27.77
2022-12-08T19:12:33.140Z,26.33
2022-12-08T19:15:01.937Z,26.50
2022-12-08T19:17:29.803Z,23.77
2022-12-08T19:19:56.341Z,25.10
2022-12-08T19:22:22.861Z,27.08
2022-12-08T19:24:49.439Z,27.08
2022-12-08T19:27:15.952Z,27.15
2022-12-08T19:29:42.509Z,29.63
2022-12-08T19:32:09.150Z,27.70
2022-12-08T19:34:35.722Z,23.90
2022-12-08T19:37:02.249Z,25.25
2022-12-08T19:39:47.721Z,24.85
2022-12-08T19:42:38.768Z,36.03
2022-12-08T19:45:18.410Z,29.45
2022-12-08T19:47:45.023Z,27.00
2022-12-08T19:50:32.502Z,28.92
2022-12-08T19:52:59.616Z,31.40
2022-12-08T19:55:26.875Z,32.03
2022-12-08T19:57:54.505Z,31.10
2022-12-08T20:00:21.570Z,29.58
2022-12-08T20:02:48.456Z,29.08
2022-12-08T20:05:15.743Z,29.35
2022-12-08T20:07:42.658Z,32.85
2022-12-08T20:10:22.158Z,31.05
2022-12-08T20:12:48.771Z,29.45
2022-12-08T20:15:15.770Z,29.35
2022-12-08T20:17:43.422Z,30.08
2022-12-08T20:20:12.176Z,32.75
2022-12-08T20:22:38.771Z,29.73
2022-12-08T20:25:05.674Z,30.35
2022-12-08T20:27:33.213Z,30.42
2022-12-08T20:29:59.772Z,33.22
2022-12-08T20:32:26.418Z,31.13
2022-12-08T20:34:53.000Z,28.88
2022-12-08T20:37:19.793Z,33.50
2022-12-08T20:39:46.331Z,31.50
2022-12-08T20:42:13.674Z,28.00
2022-12-08T20:44:44.314Z,33.15
2022-12-08T20:47:12.171Z,29.92
2022-12-08T20:49:38.942Z,32.22
2022-12-08T20:52:05.591Z,32.13
2022-12-08T20:54:32.198Z,33.25
2022-12-08T20:56:58.752Z,30.65
2022-12-08T20:59:26.464Z,30.42
2022-12-08T21:01:53.564Z,27.35
2022-12-08T21:04:20.960Z,31.65
2022-12-08T21:06:47.802Z,32.20
2022-12-08T21:09:14.535Z,28.63
2022-12-08T21:11:41.268Z,28.58
2022-12-08T21:14:07.988Z,30.75
2022-12-08T21:16:35.750Z,31.30
2022-12-08T21:19:02.680Z,33.75
2022-12-08T21:21:29.419Z,30.60
2022-12-08T21:23:56.477Z,32.33
2022-12-08T21:26:27.405Z,76.03
2022-12-08T21:31:27.105Z,40.97
2022-12-08T21:33:55.297Z,36.00
2022-12-08T21:36:22.158Z,34.88
2022-12-08T21:38:49.350Z,35.97
2022-12-08T21:41:39.820Z,37.35
2022-12-08T21:44:08.577Z,34.75
2022-12-08T21:46:35.459Z,37.47
2022-12-08T21:49:02.449Z,32.08
2022-12-08T21:51:29.217Z,36.45
2022-12-08T21:53:56.044Z,33.92
2022-12-08T21:56:23.841Z,35.67
2022-12-08T21:58:50.773Z,34.80
2022-12-08T22:01:17.464Z,38.70
2022-12-08T22:03:44.211Z,37.03
2022-12-08T22:06:13.489Z,35.55
2022-12-08T22:08:41.350Z,35.30
2022-12-08T22:11:10.017Z,35.22
2022-12-08T22:13:39.164Z,36.63
2022-12-08T22:16:09.010Z,38.20
2022-12-08T22:18:37.120Z,37.95
2022-12-08T22:21:16.338Z,36.53
2022-12-08T22:23:44.061Z,35.03
2022-12-08T22:26:11.783Z,39.58
2022-12-08T22:28:41.087Z,35.38
2022-12-08T22:31:19.761Z,35.13
2022-12-08T22:33:47.586Z,35.03
2022-12-08T22:36:17.505Z,40.55
2022-12-08T22:38:45.865Z,37.88
2022-12-08T22:41:13.025Z,39.80
2022-12-08T22:43:40.293Z,39.65
2022-12-08T22:46:12.857Z,37.72
2022-12-08T22:48:39.986Z,59.88
2022-12-08T22:51:06.980Z,47.95
2022-12-08T22:53:34.154Z,42.78
2022-12-08T22:56:04.522Z,37.53
2022-12-08T22:58:31.148Z,42.53
2022-12-08T23:00:57.766Z,40.25
2022-12-08T23:03:24.445Z,41.28
2022-12-08T23:05:52.124Z,37.65
2022-12-08T23:08:18.871Z,46.28
2022-12-08T23:10:47.431Z,41.10
2022-12-08T23:13:14.823Z,39.15
2022-12-08T23:15:41.413Z,41.58
2022-12-08T23:18:08.708Z,39.95
2022-12-08T23:20:35.733Z,41.95
2022-12-08T23:23:02.283Z,38.10
2022-12-08T23:25:28.856Z,42.65
2022-12-08T23:27:55.363Z,41.58
2022-12-08T23:30:21.922Z,44.55
2022-12-08T23:32:49.913Z,37.72
2022-12-08T23:35:16.644Z,43.20
2022-12-08T23:37:43.284Z,39.28
2022-12-08T23:40:10.414Z,42.33
2022-12-08T23:42:37.420Z,45.63
2022-12-08T23:45:05.528Z,37.17
2022-12-08T23:47:32.355Z,47.22
2022-12-08T23:49:59.029Z,43.53
2022-12-08T23:52:25.685Z,44.85
2022-12-08T23:54:54.637Z,48.80
2022-12-08T23:57:21.724Z,43.83
2022-12-08T23:59:48.341Z,50.38
